createdAt,value
2016-07-18T00:00:44.708Z,1014.93
2016-07-18T00:01:44.712Z,1014.91
2016-07-18T00:02:44.693Z,1014.94
2016-07-18T00:03:44.684Z,1014.93
2016-07-18T00:04:44.692Z,1014.94
2016-07-18T00:05:44.649Z,1014.92
2016-07-18T00:06:44.640Z,1014.92
2016-07-18T00:07:44.631Z,1014.94
2016-07-18T00:08:44.621Z,1014.97
2016-07-18T00:09:44.609Z,1014.95
2016-07-18T00:10:44.600Z,1014.97
2016-07-18T00:11:44.582Z,1014.96
2016-07-18T00:12:44.572Z,1014.95
2016-07-18T00:13:44.561Z,1014.99
2016-07-18T00:14:44.552Z,1014.99
2016-07-18T00:15:44.547Z,1014.95
2016-07-18T00:16:44.531Z,1014.96
2016-07-18T00:17:44.509Z,1015.02
2016-07-18T00:18:44.500Z,1014.97
2016-07-18T00:19:44.487Z,1014.98
2016-07-18T00:20:44.479Z,1014.97
2016-07-18T00:21:44.463Z,1014.96
2016-07-18T00:22:44.455Z,1014.99
2016-07-18T00:23:44.438Z,1014.96
2016-07-18T00:24:44.432Z,1014.97
2016-07-18T00:25:44.415Z,1015
2016-07-18T00:26:44.411Z,1014.98
2016-07-18T00:27:44.388Z,1014.96
2016-07-18T00:28:44.379Z,1014.92
2016-07-18T00:29:44.372Z,1014.96
2016-07-18T00:30:44.359Z,1014.93
2016-07-18T00:31:44.348Z,1014.96
2016-07-18T00:32:44.334Z,1014.95
2016-07-18T00:33:44.321Z,1014.96
2016-07-18T00:34:44.312Z,1014.94
2016-07-18T00:35:44.298Z,1014.95
2016-07-18T00:36:44.288Z,1014.93
2016-07-18T00:37:44.283Z,1014.94
2016-07-18T00:38:44.268Z,1014.92
2016-07-18T00:39:44.253Z,1014.93
2016-07-18T00:40:44.240Z,1014.94
2016-07-18T00:41:44.227Z,1014.92
2016-07-18T00:42:44.214Z,1014.9
2016-07-18T00:43:44.208Z,1014.91
2016-07-18T00:44:44.193Z,1014.9
2016-07-18T00:45:44.178Z,1014.89
2016-07-18T00:46:44.168Z,1014.91
2016-07-18T00:47:44.162Z,1014.9
2016-07-18T00:48:44.149Z,1014.92
2016-07-18T00:49:44.130Z,1014.92
2016-07-18T00:50:44.120Z,1014.92
2016-07-18T00:51:44.109Z,1014.9
2016-07-18T00:52:44.104Z,1014.91
2016-07-18T00:53:44.082Z,1014.92
2016-07-18T00:54:44.072Z,1014.91
2016-07-18T00:55:44.059Z,1014.93
2016-07-18T00:56:44.049Z,1014.89
2016-07-18T00:57:44.041Z,1014.88
2016-07-18T00:58:44.024Z,1014.89
2016-07-18T00:59:44.011Z,1014.86
2016-07-18T01:00:44.007Z,1014.85
2016-07-18T01:01:43.988Z,1014.89
2016-07-18T01:02:43.975Z,1014.9
2016-07-18T01:03:43.970Z,1014.83
2016-07-18T01:04:43.961Z,1014.86
2016-07-18T01:05:43.946Z,1014.92
2016-07-18T01:06:43.932Z,1014.91
2016-07-18T01:07:43.916Z,1014.91
2016-07-18T01:08:43.911Z,1014.9
2016-07-18T01:09:43.893Z,1014.91
2016-07-18T01:10:43.880Z,1014.92
2016-07-18T01:11:43.871Z,1014.92
2016-07-18T01:12:43.859Z,1014.92
2016-07-18T01:13:43.846Z,1014.9
2016-07-18T01:14:43.832Z,1014.9
2016-07-18T01:15:43.820Z,1014.84
2016-07-18T01:16:43.811Z,1014.87
2016-07-18T01:17:43.798Z,1014.87
2016-07-18T01:18:43.787Z,1014.85
2016-07-18T01:19:43.771Z,1014.82
2016-07-18T01:20:43.758Z,1014.83
2016-07-18T01:21:43.751Z,1014.81
2016-07-18T01:22:43.737Z,1014.79
2016-07-18T01:23:43.726Z,1014.79
2016-07-18T01:24:43.708Z,1014.79
2016-07-18T01:25:43.702Z,1014.77
2016-07-18T01:26:43.692Z,1014.74
2016-07-18T01:27:43.682Z,1014.72
2016-07-18T01:28:43.662Z,1014.69
2016-07-18T01:29:43.649Z,1014.71
2016-07-18T01:30:43.638Z,1014.74
2016-07-18T01:31:43.632Z,1014.73
2016-07-18T01:32:43.608Z,1014.73
2016-07-18T01:33:43.601Z,1014.73
2016-07-18T01:34:43.586Z,1014.72
2016-07-18T01:35:43.583Z,1014.71
2016-07-18T01:36:43.562Z,1014.75
2016-07-18T01:37:43.551Z,1014.75
2016-07-18T01:38:43.539Z,1014.76
2016-07-18T01:39:43.531Z,1014.75
2016-07-18T01:40:43.521Z,1014.73
2016-07-18T01:41:43.507Z,1014.72
2016-07-18T01:42:43.491Z,1014.7
2016-07-18T01:43:43.474Z,1014.63
2016-07-18T01:44:43.465Z,1014.64
2016-07-18T01:45:43.451Z,1014.61
2016-07-18T01:46:43.441Z,1014.59
2016-07-18T01:47:43.429Z,1014.61
2016-07-18T01:48:43.413Z,1014.59
2016-07-18T01:49:43.401Z,1014.57
2016-07-18T01:50:43.391Z,1014.55
2016-07-18T01:51:43.377Z,1014.53
2016-07-18T01:52:43.365Z,1014.55
2016-07-18T01:53:43.366Z,1014.54
2016-07-18T01:54:43.338Z,1014.54
2016-07-18T01:55:43.329Z,1014.5
2016-07-18T01:56:43.315Z,1014.53
2016-07-18T01:57:43.299Z,1014.47
2016-07-18T01:58:43.288Z,1014.48
2016-07-18T01:59:43.282Z,1014.48
2016-07-18T02:00:43.272Z,1014.48
2016-07-18T02:01:43.256Z,1014.5
2016-07-18T02:02:43.241Z,1014.53
2016-07-18T02:03:43.226Z,1014.52
2016-07-18T02:04:43.212Z,1014.5
2016-07-18T02:05:43.202Z,1014.5
2016-07-18T02:06:43.189Z,1014.49
2016-07-18T02:07:43.178Z,1014.5
2016-07-18T02:08:43.162Z,1014.52
2016-07-18T02:09:43.153Z,1014.52
2016-07-18T02:10:43.142Z,1014.54
2016-07-18T02:11:43.129Z,1014.53
2016-07-18T02:12:43.109Z,1014.53
2016-07-18T02:13:43.097Z,1014.54
2016-07-18T02:14:43.089Z,1014.52
2016-07-18T02:15:43.087Z,1014.5
2016-07-18T02:16:43.063Z,1014.5
2016-07-18T02:17:43.052Z,1014.53
2016-07-18T02:18:43.036Z,1014.47
2016-07-18T02:19:43.021Z,1014.49
2016-07-18T02:20:43.011Z,1014.46
2016-07-18T02:21:43.003Z,1014.46
2016-07-18T02:22:42.991Z,1014.42
2016-07-18T02:23:42.973Z,1014.42
2016-07-18T02:24:42.961Z,1014.43
2016-07-18T02:25:42.947Z,1014.41
2016-07-18T02:26:42.933Z,1014.42
2016-07-18T02:27:42.921Z,1014.43
2016-07-18T02:28:42.907Z,1014.44
2016-07-18T02:29:42.898Z,1014.45
2016-07-18T02:30:42.881Z,1014.45
2016-07-18T02:31:42.870Z,1014.48
2016-07-18T02:32:42.856Z,1014.5
2016-07-18T02:33:42.843Z,1014.51
2016-07-18T02:34:42.830Z,1014.51
2016-07-18T02:35:42.816Z,1014.49
2016-07-18T02:36:42.808Z,1014.5
2016-07-18T02:37:42.792Z,1014.53
2016-07-18T02:38:42.780Z,1014.46
2016-07-18T02:39:42.768Z,1014.51
2016-07-18T02:40:42.767Z,1014.46
2016-07-18T02:41:42.742Z,1014.47
2016-07-18T02:42:42.728Z,1014.5
2016-07-18T02:43:42.714Z,1014.47
2016-07-18T02:44:42.702Z,1014.48
2016-07-18T02:45:42.689Z,1014.51
2016-07-18T02:46:42.677Z,1014.5
2016-07-18T02:47:42.667Z,1014.5
2016-07-18T02:48:42.659Z,1014.49
2016-07-18T02:49:42.642Z,1014.49
2016-07-18T02:50:42.627Z,1014.46
2016-07-18T02:51:42.617Z,1014.47
2016-07-18T02:52:42.599Z,1014.47
2016-07-18T02:53:42.587Z,1014.48
2016-07-18T02:54:42.595Z,1014.46
2016-07-18T02:55:42.562Z,1014.5
2016-07-18T02:56:42.548Z,1014.49
2016-07-18T02:57:42.533Z,1014.55
2016-07-18T02:58:42.523Z,1014.57
2016-07-18T02:59:42.506Z,1014.63
2016-07-18T03:00:42.498Z,1014.61
2016-07-18T03:01:42.483Z,1014.62
2016-07-18T03:02:42.473Z,1014.61
2016-07-18T03:03:42.462Z,1014.6
2016-07-18T03:04:42.446Z,1014.61
2016-07-18T03:05:42.429Z,1014.6
2016-07-18T03:06:42.422Z,1014.58
2016-07-18T03:07:42.407Z,1014.63
2016-07-18T03:08:42.393Z,1014.56
2016-07-18T03:09:42.381Z,1014.5
2016-07-18T03:10:42.367Z,1014.51
2016-07-18T03:11:42.352Z,1014.49
2016-07-18T03:12:42.341Z,1014.55
2016-07-18T03:13:42.327Z,1014.55
2016-07-18T03:14:42.313Z,1014.57
2016-07-18T03:15:42.301Z,1014.62
2016-07-18T03:16:42.291Z,1014.63
2016-07-18T03:17:42.281Z,1014.64
2016-07-18T03:18:42.263Z,1014.65
2016-07-18T03:19:42.249Z,1014.63
2016-07-18T03:20:42.241Z,1014.66
2016-07-18T03:21:42.222Z,1014.65
2016-07-18T03:22:42.208Z,1014.63
2016-07-18T03:23:42.201Z,1014.64
2016-07-18T03:24:42.191Z,1014.66
2016-07-18T03:25:42.170Z,1014.7
2016-07-18T03:26:42.161Z,1014.7
2016-07-18T03:27:42.145Z,1014.65
2016-07-18T03:28:42.136Z,1014.7
2016-07-18T03:29:42.121Z,1014.68
2016-07-18T03:30:42.109Z,1014.68
2016-07-18T03:31:42.092Z,1014.65
2016-07-18T03:32:42.081Z,1014.67
2016-07-18T03:33:42.064Z,1014.69
2016-07-18T03:34:42.053Z,1014.61
2016-07-18T03:35:42.043Z,1014.64
2016-07-18T03:36:42.028Z,1014.65
2016-07-18T03:37:42.022Z,1014.65
2016-07-18T03:38:42.003Z,1014.67
2016-07-18T03:39:41.988Z,1014.67
2016-07-18T03:40:41.976Z,1014.68
2016-07-18T03:41:41.962Z,1014.7
2016-07-18T03:42:41.950Z,1014.68
2016-07-18T03:43:41.937Z,1014.68
2016-07-18T03:44:41.929Z,1014.66
2016-07-18T03:45:41.907Z,1014.66
2016-07-18T03:46:41.898Z,1014.59
2016-07-18T03:47:41.883Z,1014.58
2016-07-18T03:48:41.872Z,1014.59
2016-07-18T03:49:41.857Z,1014.59
2016-07-18T03:50:41.850Z,1014.6
2016-07-18T03:51:41.834Z,1014.63
2016-07-18T03:52:41.815Z,1014.65
2016-07-18T03:53:41.802Z,1014.62
2016-07-18T03:54:41.791Z,1014.66
2016-07-18T03:55:41.776Z,1014.62
2016-07-18T03:56:41.768Z,1014.6
2016-07-18T03:57:41.752Z,1014.61
2016-07-18T03:58:41.734Z,1014.62
2016-07-18T03:59:41.723Z,1014.66
2016-07-18T04:00:41.714Z,1014.67
2016-07-18T04:01:41.701Z,1014.65
2016-07-18T04:02:41.679Z,1014.61
2016-07-18T04:03:41.672Z,1014.62
2016-07-18T04:04:41.660Z,1014.62
2016-07-18T04:05:41.643Z,1014.59
2016-07-18T04:06:41.633Z,1014.6
2016-07-18T04:07:41.615Z,1014.62
2016-07-18T04:08:41.602Z,1014.61
2016-07-18T04:09:41.591Z,1014.58
2016-07-18T04:10:41.574Z,1014.59
2016-07-18T04:11:41.562Z,1014.56
2016-07-18T04:12:41.547Z,1014.55
2016-07-18T04:13:41.537Z,1014.54
2016-07-18T04:14:41.531Z,1014.53
2016-07-18T04:15:41.512Z,1014.48
2016-07-18T04:16:41.501Z,1014.47
2016-07-18T04:17:41.485Z,1014.51
2016-07-18T04:18:41.472Z,1014.51
2016-07-18T04:19:41.458Z,1014.51
2016-07-18T04:20:41.441Z,1014.56
2016-07-18T04:21:41.431Z,1014.53
2016-07-18T04:22:41.468Z,1014.53
2016-07-18T04:23:41.401Z,1014.54
2016-07-18T04:24:41.390Z,1014.57
2016-07-18T04:25:41.382Z,1014.58
2016-07-18T04:26:41.359Z,1014.59
2016-07-18T04:27:41.352Z,1014.6
2016-07-18T04:28:41.334Z,1014.61
2016-07-18T04:29:41.470Z,1014.59
2016-07-18T04:30:41.312Z,1014.65
2016-07-18T04:31:41.293Z,1014.62
2016-07-18T04:32:41.282Z,1014.65
2016-07-18T04:33:41.271Z,1014.6
2016-07-18T04:34:41.258Z,1014.66
2016-07-18T04:35:41.241Z,1014.66
2016-07-18T04:36:41.232Z,1014.65
2016-07-18T04:37:41.217Z,1014.67
2016-07-18T04:38:41.198Z,1014.69
2016-07-18T04:39:41.191Z,1014.7
2016-07-18T04:40:41.180Z,1014.64
2016-07-18T04:41:41.159Z,1014.67
2016-07-18T04:42:41.148Z,1014.67
2016-07-18T04:43:41.133Z,1014.66
2016-07-18T04:44:41.126Z,1014.67
2016-07-18T04:45:41.107Z,1014.66
2016-07-18T04:46:41.094Z,1014.64
2016-07-18T04:47:41.090Z,1014.67
2016-07-18T04:48:41.068Z,1014.67
2016-07-18T04:49:41.060Z,1014.68
2016-07-18T04:50:41.046Z,1014.7
2016-07-18T04:51:41.027Z,1014.7
2016-07-18T04:52:41.015Z,1014.68
2016-07-18T04:53:41.008Z,1014.71
2016-07-18T04:54:40.989Z,1014.67
2016-07-18T04:55:40.977Z,1014.71
2016-07-18T04:56:40.970Z,1014.69
2016-07-18T04:57:40.948Z,1014.66
2016-07-18T04:58:40.937Z,1014.69
2016-07-18T04:59:40.929Z,1014.67
2016-07-18T05:00:40.911Z,1014.7
2016-07-18T05:01:40.899Z,1014.7
2016-07-18T05:02:40.885Z,1014.7
2016-07-18T05:03:40.878Z,1014.7
2016-07-18T05:04:40.864Z,1014.66
2016-07-18T05:05:40.847Z,1014.69
2016-07-18T05:06:40.834Z,1014.69
2016-07-18T05:07:40.816Z,1014.66
2016-07-18T05:08:40.809Z,1014.65
2016-07-18T05:09:40.797Z,1014.67
2016-07-18T05:10:40.784Z,1014.65
2016-07-18T05:11:40.780Z,1014.6
2016-07-18T05:12:40.757Z,1014.62
2016-07-18T05:13:40.750Z,1014.63
2016-07-18T05:14:40.740Z,1014.64
2016-07-18T05:15:40.720Z,1014.64
2016-07-18T05:16:40.707Z,1014.63
2016-07-18T05:17:40.694Z,1014.63
2016-07-18T05:18:40.745Z,1014.63
2016-07-18T05:19:40.671Z,1014.64
2016-07-18T05:20:40.661Z,1014.66
2016-07-18T05:21:40.649Z,1014.68
2016-07-18T05:22:40.632Z,1014.64
2016-07-18T05:23:40.616Z,1014.65
2016-07-18T05:24:40.606Z,1014.7
2016-07-18T05:25:40.596Z,1014.72
2016-07-18T05:26:40.619Z,1014.68
2016-07-18T05:27:40.566Z,1014.72
2016-07-18T05:28:40.558Z,1014.7
2016-07-18T05:29:40.546Z,1014.7
2016-07-18T05:30:40.528Z,1014.67
2016-07-18T05:31:40.519Z,1014.68
2016-07-18T05:32:40.506Z,1014.67
2016-07-18T05:33:40.498Z,1014.67
2016-07-18T05:34:40.486Z,1014.65
2016-07-18T05:35:40.467Z,1014.64
2016-07-18T05:36:40.469Z,1014.66
2016-07-18T05:37:40.444Z,1014.66
2016-07-18T05:38:40.437Z,1014.68
2016-07-18T05:39:40.424Z,1014.69
2016-07-18T05:40:40.407Z,1014.71
2016-07-18T05:41:40.396Z,1014.73
2016-07-18T05:42:40.382Z,1014.79
2016-07-18T05:43:40.372Z,1014.77
2016-07-18T05:44:40.355Z,1014.83
2016-07-18T05:45:40.348Z,1014.77
2016-07-18T05:46:40.335Z,1014.8
2016-07-18T05:47:40.321Z,1014.84
2016-07-18T05:48:40.316Z,1014.84
2016-07-18T05:49:40.294Z,1014.89
2016-07-18T05:50:40.287Z,1014.85
2016-07-18T05:51:40.274Z,1014.91
2016-07-18T05:52:40.269Z,1014.88
2016-07-18T05:53:40.252Z,1014.88
2016-07-18T05:54:40.236Z,1014.87
2016-07-18T05:55:40.224Z,1014.89
2016-07-18T05:56:40.215Z,1014.91
2016-07-18T05:57:40.207Z,1014.88
2016-07-18T05:58:40.188Z,1014.88
2016-07-18T05:59:40.178Z,1014.9
2016-07-18T06:00:40.177Z,1014.86
2016-07-18T06:01:40.153Z,1014.89
2016-07-18T06:02:40.144Z,1014.9
2016-07-18T06:03:40.125Z,1014.9
2016-07-18T06:04:40.116Z,1014.85
2016-07-18T06:05:40.099Z,1014.92
2016-07-18T06:06:40.095Z,1014.92
2016-07-18T06:07:40.078Z,1014.91
2016-07-18T06:08:40.069Z,1014.9
2016-07-18T06:09:40.054Z,1014.91
2016-07-18T06:10:40.050Z,1014.91
2016-07-18T06:11:40.035Z,1014.87
2016-07-18T06:12:40.017Z,1014.9
2016-07-18T06:13:40.016Z,1014.89
2016-07-18T06:14:39.999Z,1014.92
2016-07-18T06:15:39.989Z,1014.92
2016-07-18T06:16:39.968Z,1014.91
2016-07-18T06:17:39.956Z,1014.94
2016-07-18T06:18:39.946Z,1014.96
2016-07-18T06:19:39.934Z,1014.93
2016-07-18T06:20:39.933Z,1014.95
2016-07-18T06:21:39.908Z,1014.99
2016-07-18T06:22:39.896Z,1014.97
2016-07-18T06:23:39.887Z,1014.98
2016-07-18T06:24:39.877Z,1015.02
2016-07-18T06:25:39.865Z,1015
2016-07-18T06:26:39.846Z,1015.02
2016-07-18T06:27:39.840Z,1015.03
2016-07-18T06:28:39.827Z,1015.01
2016-07-18T06:29:39.811Z,1015.03
2016-07-18T06:30:39.809Z,1015.04
2016-07-18T06:31:39.788Z,1015.02
2016-07-18T06:32:39.778Z,1015
2016-07-18T06:33:39.765Z,1014.96
2016-07-18T06:34:39.760Z,1014.98
2016-07-18T06:35:39.741Z,1014.96
2016-07-18T06:36:39.725Z,1014.96
2016-07-18T06:37:39.717Z,1014.94
2016-07-18T06:38:39.718Z,1014.99
2016-07-18T06:39:39.697Z,1014.99
2016-07-18T06:40:39.685Z,1015
2016-07-18T06:41:39.677Z,1014.98
2016-07-18T06:42:39.662Z,1015.02
2016-07-18T06:43:39.660Z,1015.02
2016-07-18T06:44:39.638Z,1015.04
2016-07-18T06:45:39.636Z,1015.02
2016-07-18T06:46:39.620Z,1015.01
2016-07-18T06:47:39.605Z,1015
2016-07-18T06:48:39.593Z,1015.02
2016-07-18T06:49:39.590Z,1015
2016-07-18T06:50:39.568Z,1015.01
2016-07-18T06:51:39.565Z,1015.01
2016-07-18T06:52:39.548Z,1015.02
2016-07-18T06:53:39.536Z,1015.02
2016-07-18T06:54:39.530Z,1015.02
2016-07-18T06:55:39.519Z,1015.04
2016-07-18T06:56:39.510Z,1015.05
2016-07-18T06:57:39.500Z,1015.05
2016-07-18T06:58:39.491Z,1015.05
2016-07-18T06:59:39.475Z,1015.1
2016-07-18T07:00:39.467Z,1015.1
2016-07-18T07:01:39.450Z,1015.13
2016-07-18T07:02:39.440Z,1015.07
2016-07-18T07:03:39.429Z,1015.07
2016-07-18T07:04:39.415Z,1015.05
2016-07-18T07:05:39.410Z,1014.99
2016-07-18T07:06:39.398Z,1015.03
2016-07-18T07:07:39.390Z,1015.01
2016-07-18T07:08:39.378Z,1015.03
2016-07-18T07:09:39.365Z,1015.05
2016-07-18T07:10:39.354Z,1015.03
2016-07-18T07:11:39.349Z,1015
2016-07-18T07:12:39.341Z,1015.03
2016-07-18T07:13:39.321Z,1015.01
2016-07-18T07:14:39.311Z,1015.01
2016-07-18T07:15:39.303Z,1015.07
2016-07-18T07:16:39.290Z,1015.04
2016-07-18T07:17:39.282Z,1015.02
2016-07-18T07:18:39.270Z,1015.02
2016-07-18T07:19:39.260Z,1015.07
2016-07-18T07:20:39.247Z,1015.02
2016-07-18T07:21:39.241Z,1015.02
2016-07-18T07:22:39.227Z,1015.05
2016-07-18T07:23:39.218Z,1015.04
2016-07-18T07:24:39.207Z,1015.03
2016-07-18T07:25:39.195Z,1015.06
2016-07-18T07:26:39.187Z,1015.04
2016-07-18T07:27:39.178Z,1015.03
2016-07-18T07:28:39.166Z,1015.02
2016-07-18T07:29:39.160Z,1015
2016-07-18T07:30:39.144Z,1015.04
2016-07-18T07:31:39.139Z,1015
2016-07-18T07:32:39.177Z,1015
2016-07-18T07:33:39.117Z,1015.02
2016-07-18T07:34:39.099Z,1014.99
2016-07-18T07:35:39.100Z,1014.96
2016-07-18T07:36:39.136Z,1014.95
2016-07-18T07:37:39.069Z,1014.96
2016-07-18T07:38:39.069Z,1014.98
2016-07-18T07:39:39.052Z,1015.03
2016-07-18T07:40:39.036Z,1015.01
2016-07-18T07:41:39.026Z,1014.98
2016-07-18T07:42:39.019Z,1014.98
2016-07-18T07:43:39.010Z,1015
2016-07-18T07:44:38.999Z,1014.97
2016-07-18T07:45:38.996Z,1015.02
2016-07-18T07:46:38.988Z,1015.03
2016-07-18T07:47:38.979Z,1015
2016-07-18T07:48:38.968Z,1015.01
2016-07-18T07:49:38.960Z,1014.98
2016-07-18T07:50:38.950Z,1015.02
2016-07-18T07:51:38.939Z,1015.03
2016-07-18T07:52:38.930Z,1015.03
2016-07-18T07:53:38.917Z,1015.02
2016-07-18T07:54:38.906Z,1015.06
2016-07-18T07:55:38.896Z,1015.04
2016-07-18T07:56:38.886Z,1015.05
2016-07-18T07:57:38.876Z,1015.04
2016-07-18T07:58:38.867Z,1015.09
2016-07-18T07:59:38.860Z,1015.04
2016-07-18T08:00:38.854Z,1015.04
2016-07-18T08:01:38.848Z,1015.03
2016-07-18T08:02:38.838Z,1015
2016-07-18T08:03:38.823Z,1014.97
2016-07-18T08:04:38.819Z,1015.02
2016-07-18T08:05:38.808Z,1015
2016-07-18T08:06:38.799Z,1015.02
2016-07-18T08:07:38.790Z,1015.01
2016-07-18T08:08:38.777Z,1015.01
2016-07-18T08:09:38.772Z,1015.03
2016-07-18T08:10:38.756Z,1015.06
2016-07-18T08:11:38.759Z,1015.07
2016-07-18T08:12:38.749Z,1015.03
2016-07-18T08:13:38.737Z,1015.04
2016-07-18T08:14:38.727Z,1015.08
2016-07-18T08:15:38.717Z,1015.08
2016-07-18T08:16:38.724Z,1015.04
2016-07-18T08:17:38.703Z,1015.07
2016-07-18T08:18:38.695Z,1014.99
2016-07-18T08:19:38.691Z,1015.03
2016-07-18T08:20:38.680Z,1015.05
2016-07-18T08:21:38.723Z,1015.04
2016-07-18T08:22:38.672Z,1015
2016-07-18T08:23:38.656Z,1014.96
2016-07-18T08:24:38.645Z,1015.03
2016-07-18T08:25:38.640Z,1015.01
2016-07-18T08:26:38.631Z,1014.99
2016-07-18T08:27:38.629Z,1015.03
2016-07-18T08:28:38.622Z,1015.01
2016-07-18T08:29:38.613Z,1014.98
2016-07-18T08:30:38.601Z,1014.99
2016-07-18T08:31:38.591Z,1015.04
2016-07-18T08:32:38.587Z,1015
2016-07-18T08:33:38.575Z,1014.98
2016-07-18T08:34:38.578Z,1014.96
2016-07-18T08:35:38.562Z,1014.96
2016-07-18T08:36:38.554Z,1015.02
2016-07-18T08:37:38.548Z,1015
2016-07-18T08:38:38.537Z,1015.03
2016-07-18T08:39:38.535Z,1014.98
2016-07-18T08:40:38.530Z,1015
2016-07-18T08:41:38.528Z,1014.97
2016-07-18T08:42:38.513Z,1014.99
2016-07-18T08:43:38.511Z,1015.09
2016-07-18T08:44:38.500Z,1015.07
2016-07-18T08:45:38.495Z,1015.05
2016-07-18T08:46:38.488Z,1015.17
2016-07-18T08:47:38.479Z,1015.14
2016-07-18T08:48:38.472Z,1015.1
2016-07-18T08:49:38.469Z,1015.14
2016-07-18T08:50:38.463Z,1015.2
2016-07-18T08:51:38.453Z,1015.06
2016-07-18T08:52:38.449Z,1015.04
2016-07-18T08:53:38.450Z,1015.13
2016-07-18T08:54:38.457Z,1015.14
2016-07-18T08:55:38.436Z,1015.24
2016-07-18T08:56:38.423Z,1015.21
2016-07-18T08:57:38.420Z,1015.21
2016-07-18T08:58:38.418Z,1015.13
2016-07-18T08:59:38.410Z,1015.1
2016-07-18T09:00:38.407Z,1015.08
2016-07-18T09:01:38.398Z,1015.05
2016-07-18T09:02:38.393Z,1015.1
2016-07-18T09:03:38.390Z,1015.19
2016-07-18T09:04:38.381Z,1015.16
2016-07-18T09:05:38.376Z,1015.19
2016-07-18T09:06:38.380Z,1015.13
2016-07-18T09:07:38.369Z,1015.2
2016-07-18T09:08:38.362Z,1015.12
2016-07-18T09:09:38.360Z,1015.13
2016-07-18T09:10:38.357Z,1015.24
2016-07-18T09:11:38.350Z,1015.26
2016-07-18T09:12:38.349Z,1015.26
2016-07-18T09:13:38.336Z,1015.22
2016-07-18T09:14:38.334Z,1015.23
2016-07-18T09:15:38.330Z,1015.3
2016-07-18T09:16:38.329Z,1015.2
2016-07-18T09:17:38.331Z,1015.12
2016-07-18T09:18:38.325Z,1015.22
2016-07-18T09:19:38.318Z,1015.2
2016-07-18T09:20:38.318Z,1015.21
2016-07-18T09:21:38.317Z,1015.13
2016-07-18T09:22:38.308Z,1015.28
2016-07-18T09:23:38.305Z,1015.19
2016-07-18T09:24:38.303Z,1015.23
2016-07-18T09:25:38.300Z,1015.31
2016-07-18T09:26:38.299Z,1015.26
2016-07-18T09:27:38.298Z,1015.29
2016-07-18T09:28:38.296Z,1015.31
2016-07-18T09:29:38.299Z,1015.28
2016-07-18T09:30:38.290Z,1015.3
2016-07-18T09:31:38.289Z,1015.3
2016-07-18T09:32:38.287Z,1015.4
2016-07-18T09:33:38.291Z,1015.38
2016-07-18T09:34:38.287Z,1015.37
2016-07-18T09:35:38.282Z,1015.39
2016-07-18T09:36:38.288Z,1015.41
2016-07-18T09:37:38.288Z,1015.39
2016-07-18T09:38:38.279Z,1015.42
2016-07-18T09:39:38.289Z,1015.38
2016-07-18T09:40:38.289Z,1015.36
2016-07-18T09:41:38.290Z,1015.37
2016-07-18T09:42:38.290Z,1015.38
2016-07-18T09:43:38.293Z,1015.41
2016-07-18T09:44:38.290Z,1015.36
2016-07-18T09:45:38.288Z,1015.41
2016-07-18T09:46:38.290Z,1015.38
2016-07-18T09:47:38.293Z,1015.34
2016-07-18T09:48:38.292Z,1015.45
2016-07-18T09:49:38.299Z,1015.45
2016-07-18T09:50:38.300Z,1015.47
2016-07-18T09:51:38.298Z,1015.39
2016-07-18T09:52:38.291Z,1015.33
2016-07-18T09:53:38.298Z,1015.45
2016-07-18T09:54:38.298Z,1015.38
2016-07-18T09:55:38.300Z,1015.35
2016-07-18T09:56:38.297Z,1015.43
2016-07-18T09:57:38.299Z,1015.41
2016-07-18T09:58:38.303Z,1015.41
2016-07-18T09:59:38.306Z,1015.41
2016-07-18T10:00:38.305Z,1015.43
2016-07-18T10:01:38.306Z,1015.45
2016-07-18T10:02:38.308Z,1015.43
2016-07-18T10:03:38.303Z,1015.44
2016-07-18T10:04:38.309Z,1015.46
2016-07-18T10:05:38.316Z,1015.41
2016-07-18T10:06:38.312Z,1015.32
2016-07-18T10:07:38.313Z,1015.35
2016-07-18T10:08:38.313Z,1015.36
2016-07-18T10:09:38.316Z,1015.37
2016-07-18T10:10:38.313Z,1015.39
2016-07-18T10:11:38.314Z,1015.39
2016-07-18T10:12:38.315Z,1015.4
2016-07-18T10:13:38.317Z,1015.32
2016-07-18T10:14:38.314Z,1015.24
2016-07-18T10:15:38.315Z,1015.29
2016-07-18T10:16:38.321Z,1015.29
2016-07-18T10:17:38.317Z,1015.28
2016-07-18T10:18:38.316Z,1015.26
2016-07-18T10:19:38.318Z,1015.3
2016-07-18T10:20:38.319Z,1015.26
2016-07-18T10:21:38.316Z,1015.28
2016-07-18T10:22:38.315Z,1015.27
2016-07-18T10:23:38.317Z,1015.14
2016-07-18T10:24:38.319Z,1015.25
2016-07-18T10:25:38.317Z,1015.2
2016-07-18T10:26:38.320Z,1015.25
2016-07-18T10:27:38.318Z,1015.31
2016-07-18T10:28:38.314Z,1015.31
2016-07-18T10:29:38.307Z,1015.29
2016-07-18T10:30:38.308Z,1015.29
2016-07-18T10:31:38.314Z,1015.25
2016-07-18T10:32:38.306Z,1015.32
2016-07-18T10:33:38.306Z,1015.32
2016-07-18T10:34:38.305Z,1015.27
2016-07-18T10:35:38.305Z,1015.3
2016-07-18T10:36:38.296Z,1015.23
2016-07-18T10:37:38.299Z,1015.27
2016-07-18T10:38:38.308Z,1015.25
2016-07-18T10:39:38.292Z,1015.21
2016-07-18T10:40:38.291Z,1015.22
2016-07-18T10:41:38.293Z,1015.21
2016-07-18T10:42:38.286Z,1015.22
2016-07-18T10:43:38.290Z,1015.31
2016-07-18T10:44:38.287Z,1015.29
2016-07-18T10:45:38.286Z,1015.22
2016-07-18T10:46:38.287Z,1015.24
2016-07-18T10:47:38.284Z,1015.23
2016-07-18T10:48:38.278Z,1015.23
2016-07-18T10:49:38.279Z,1015.3
2016-07-18T10:50:38.278Z,1015.19
2016-07-18T10:51:38.292Z,1015.25
2016-07-18T10:52:38.268Z,1015.27
2016-07-18T10:53:38.268Z,1015.24
2016-07-18T10:54:38.265Z,1015.2
2016-07-18T10:55:38.263Z,1015.25
2016-07-18T10:56:38.304Z,1015.18
2016-07-18T10:57:38.257Z,1015.22
2016-07-18T10:58:38.259Z,1015.21
2016-07-18T10:59:38.260Z,1015.21
2016-07-18T11:00:38.253Z,1015.21
2016-07-18T11:01:38.248Z,1015.22
2016-07-18T11:02:38.247Z,1015.2
2016-07-18T11:03:38.241Z,1015.19
2016-07-18T11:04:38.240Z,1015.16
2016-07-18T11:05:38.244Z,1015.16
2016-07-18T11:06:38.234Z,1015.13
2016-07-18T11:07:38.231Z,1015.17
2016-07-18T11:08:38.228Z,1015.14
2016-07-18T11:09:38.221Z,1015.15
2016-07-18T11:10:38.220Z,1015.12
2016-07-18T11:11:38.216Z,1015.1
2016-07-18T11:12:38.215Z,1015.15
2016-07-18T11:13:38.209Z,1015.09
2016-07-18T11:14:38.208Z,1015.13
2016-07-18T11:15:38.209Z,1015.1
2016-07-18T11:16:38.204Z,1015.17
2016-07-18T11:17:38.204Z,1015.08
2016-07-18T11:18:38.199Z,1015.08
2016-07-18T11:19:38.198Z,1015.12
2016-07-18T11:20:38.198Z,1015.13
2016-07-18T11:21:38.190Z,1015.03
2016-07-18T11:22:38.186Z,1015.07
2016-07-18T11:23:38.191Z,1015.05
2016-07-18T11:24:38.180Z,1015.02
2016-07-18T11:25:38.179Z,1015.01
2016-07-18T11:26:38.175Z,1015.03
2016-07-18T11:27:38.171Z,1015.01
2016-07-18T11:28:38.166Z,1015.03
2016-07-18T11:29:38.167Z,1015.01
2016-07-18T11:30:38.161Z,1015.02
2016-07-18T11:31:38.161Z,1015.04
2016-07-18T11:32:38.152Z,1015.03
2016-07-18T11:33:38.150Z,1015.04
2016-07-18T11:34:38.143Z,1015.1
2016-07-18T11:35:38.149Z,1015.08
2016-07-18T11:36:38.137Z,1015.12
2016-07-18T11:37:38.132Z,1015.1
2016-07-18T11:38:38.130Z,1015.18
2016-07-18T11:39:38.130Z,1015.11
2016-07-18T11:40:38.131Z,1015.13
2016-07-18T11:41:38.129Z,1015.1
2016-07-18T11:42:38.120Z,1015.07
2016-07-18T11:43:38.111Z,1015.11
2016-07-18T11:44:38.111Z,1015.18
2016-07-18T11:45:38.102Z,1015.14
2016-07-18T11:46:38.098Z,1015.17
2016-07-18T11:47:38.095Z,1015.16
2016-07-18T11:48:38.099Z,1015.18
2016-07-18T11:49:38.085Z,1015.15
2016-07-18T11:50:38.086Z,1015.13
2016-07-18T11:51:38.085Z,1015.1
2016-07-18T11:52:38.079Z,1015.08
2016-07-18T11:53:38.077Z,1015.11
2016-07-18T11:54:38.071Z,1015.09
2016-07-18T11:55:38.070Z,1015.08
2016-07-18T11:56:38.078Z,1015.07
2016-07-18T11:57:38.057Z,1015.08
2016-07-18T11:58:38.061Z,1015.1
2016-07-18T11:59:38.055Z,1015.13
2016-07-18T12:00:38.052Z,1015.09
2016-07-18T12:01:38.043Z,1015.04
2016-07-18T12:02:38.044Z,1015.1
2016-07-18T12:03:38.047Z,1015.09
2016-07-18T12:04:38.037Z,1015.08
2016-07-18T12:05:38.028Z,1015.15
2016-07-18T12:06:38.031Z,1015.1
2016-07-18T12:07:38.025Z,1015.16
2016-07-18T12:08:38.020Z,1015.07
2016-07-18T12:09:38.016Z,1015.14